Terminal Aerodrome Forecast
Issued by NWS

Home | Current Version | Previous Version | Text Only | Print | Product List | Glossary Off
Versions: 1 2 3 4 5 6 7 8 9 10 11 12 13 14

000
FTUS43 KMPX 081700
TAFAXN
TAF
KAXN 081738Z 0818/0918 32018G25KT P6SM SCT040
     FM090100 31007KT P6SM SKC
     FM091000 28004KT P6SM SKC
     FM091600 29009KT P6SM FEW050 SCT100=

USA.gov is the U.S. government's official web portal to all federal, state and local government web resources and services.